createdAt,value
2022-12-15T00:00:38.406Z,53.29
2022-12-15T00:03:28.759Z,53.43
2022-12-15T00:06:17.353Z,53.69
2022-12-15T00:09:08.540Z,53.77
2022-12-15T00:12:01.096Z,53.90
2022-12-15T00:14:49.443Z,53.52
2022-12-15T00:17:37.656Z,53.69
2022-12-15T00:20:26.177Z,53.43
2022-12-15T00:23:14.546Z,53.55
2022-12-15T00:26:05.146Z,53.25
2022-12-15T00:28:53.631Z,52.97
2022-12-15T00:31:42.118Z,53.26
2022-12-15T00:34:30.991Z,53.23
2022-12-15T00:37:19.322Z,52.91
2022-12-15T00:40:00.792Z,53.18
2022-12-15T00:42:31.267Z,52.86
2022-12-15T00:45:02.169Z,52.86
2022-12-15T00:47:36.341Z,53.15
2022-12-15T00:50:25.255Z,52.86
2022-12-15T00:53:13.612Z,52.98
2022-12-15T00:56:03.041Z,52.89
2022-12-15T00:58:51.560Z,52.66
2022-12-15T01:01:40.381Z,52.90
2022-12-15T01:04:29.025Z,52.52
2022-12-15T01:07:17.437Z,52.94
2022-12-15T01:10:05.890Z,53.00
2022-12-15T01:12:54.432Z,52.84
2022-12-15T01:15:42.826Z,52.66
2022-12-15T01:18:31.174Z,52.85
2022-12-15T01:21:07.107Z,53.05
2022-12-15T01:23:38.776Z,53.01
2022-12-15T01:26:10.073Z,53.07
2022-12-15T01:28:40.222Z,52.82
2022-12-15T01:31:14.496Z,52.74
2022-12-15T01:33:45.819Z,52.77
2022-12-15T01:36:16.527Z,52.93
2022-12-15T01:38:52.275Z,52.90
2022-12-15T01:41:24.566Z,52.78
2022-12-15T01:43:55.015Z,53.04
2022-12-15T01:46:27.229Z,52.94
2022-12-15T01:49:14.036Z,52.94
2022-12-15T01:51:49.610Z,52.68
2022-12-15T01:54:50.892Z,52.93
2022-12-15T01:57:27.782Z,52.76
2022-12-15T02:00:04.205Z,52.74
2022-12-15T02:02:40.407Z,52.91
2022-12-15T02:05:12.183Z,52.58
2022-12-15T02:07:41.932Z,52.88
2022-12-15T02:10:13.424Z,52.73
2022-12-15T02:12:52.359Z,52.95
2022-12-15T02:15:30.856Z,52.75
2022-12-15T02:18:04.221Z,52.53
2022-12-15T02:20:45.227Z,52.55
2022-12-15T02:23:36.363Z,52.63
2022-12-15T02:26:15.081Z,52.65
2022-12-15T02:29:02.995Z,52.47
2022-12-15T02:32:03.549Z,52.38
2022-12-15T02:35:01.361Z,52.51
2022-12-15T02:37:37.632Z,52.14
2022-12-15T02:40:11.419Z,52.42
2022-12-15T02:43:03.846Z,52.37
2022-12-15T02:45:42.968Z,52.26
2022-12-15T02:48:39.208Z,52.20
2022-12-15T02:51:45.424Z,52.26
2022-12-15T02:54:25.787Z,52.41
2022-12-15T02:57:34.469Z,52.40
2022-12-15T03:00:09.698Z,52.13
2022-12-15T03:02:44.852Z,52.17
2022-12-15T03:05:16.552Z,52.30
2022-12-15T03:07:49.827Z,52.05
2022-12-15T03:10:21.085Z,51.98
2022-12-15T03:12:52.467Z,52.31
2022-12-15T03:15:22.322Z,52.48
2022-12-15T03:17:52.490Z,52.36
2022-12-15T03:20:22.942Z,52.16
2022-12-15T03:22:53.089Z,52.32
2022-12-15T03:25:23.103Z,52.02
2022-12-15T03:27:53.108Z,52.15
2022-12-15T03:30:23.128Z,52.16
2022-12-15T03:32:53.424Z,52.16
2022-12-15T03:35:23.624Z,52.04
2022-12-15T03:37:53.768Z,51.93
2022-12-15T03:40:23.778Z,51.95
2022-12-15T03:42:53.806Z,52.26
2022-12-15T03:45:29.552Z,51.87
2022-12-15T03:48:00.377Z,51.70
2022-12-15T03:50:31.896Z,52.02
2022-12-15T03:53:03.117Z,51.90
2022-12-15T03:55:33.542Z,51.79
2022-12-15T03:58:04.995Z,51.88
2022-12-15T04:00:35.918Z,51.67
2022-12-15T04:03:06.427Z,51.54
2022-12-15T04:05:37.576Z,51.55
2022-12-15T04:08:07.996Z,51.61
2022-12-15T04:10:38.630Z,51.74
2022-12-15T04:13:12.074Z,51.57
2022-12-15T04:15:43.118Z,52.00
2022-12-15T04:18:14.434Z,51.72
2022-12-15T04:20:44.783Z,51.44
2022-12-15T04:23:14.953Z,51.63
2022-12-15T04:26:03.242Z,51.75
2022-12-15T04:28:51.590Z,51.83
2022-12-15T04:31:48.606Z,51.52
2022-12-15T04:34:46.112Z,51.82
2022-12-15T04:37:35.836Z,51.60
2022-12-15T04:40:26.563Z,51.54
2022-12-15T04:43:15.123Z,51.38
2022-12-15T04:46:03.488Z,51.19
2022-12-15T04:48:52.624Z,51.34
2022-12-15T04:51:41.136Z,51.37
2022-12-15T04:54:29.559Z,51.24
2022-12-15T04:57:18.319Z,51.25
2022-12-15T05:00:06.786Z,51.24
2022-12-15T05:02:55.351Z,51.40
2022-12-15T05:05:43.811Z,51.31
2022-12-15T05:08:32.449Z,51.27
2022-12-15T05:11:21.288Z,51.51
2022-12-15T05:14:09.658Z,51.40
2022-12-15T05:16:58.065Z,51.58
2022-12-15T05:19:46.571Z,51.39
2022-12-15T05:22:34.843Z,51.35
2022-12-15T05:25:23.482Z,51.47
2022-12-15T05:28:12.268Z,51.47
2022-12-15T05:31:00.963Z,51.34
2022-12-15T05:33:31.453Z,51.21
2022-12-15T05:36:01.889Z,51.42
2022-12-15T05:38:32.260Z,51.33
2022-12-15T05:41:02.698Z,51.36
2022-12-15T05:43:33.171Z,51.31
2022-12-15T05:46:07.454Z,51.28
2022-12-15T05:48:37.607Z,51.42
2022-12-15T05:51:12.327Z,51.20
2022-12-15T05:53:44.279Z,51.61
2022-12-15T05:56:16.760Z,51.39
2022-12-15T05:58:47.091Z,51.46
2022-12-15T06:01:19.872Z,51.59
2022-12-15T06:03:50.030Z,51.35
2022-12-15T06:06:20.544Z,51.52
2022-12-15T06:08:50.847Z,51.61
2022-12-15T06:11:22.735Z,51.56
2022-12-15T06:13:52.925Z,51.63
2022-12-15T06:16:25.748Z,51.48
2022-12-15T06:18:58.911Z,51.72
2022-12-15T06:21:35.399Z,51.69
2022-12-15T06:24:07.240Z,51.53
2022-12-15T06:26:42.153Z,51.77
2022-12-15T06:29:14.129Z,51.67
2022-12-15T06:31:44.932Z,51.82
2022-12-15T06:34:17.968Z,51.62
2022-12-15T06:36:48.688Z,51.64
2022-12-15T06:39:19.134Z,51.59
2022-12-15T06:41:49.783Z,51.57
2022-12-15T06:44:20.134Z,51.40
2022-12-15T06:46:50.393Z,51.48
2022-12-15T06:49:20.680Z,51.64
2022-12-15T06:51:52.502Z,51.48
2022-12-15T06:54:22.682Z,51.79
2022-12-15T06:56:53.020Z,51.79
2022-12-15T06:59:23.383Z,51.81
2022-12-15T07:01:53.783Z,51.80
2022-12-15T07:04:24.106Z,51.70
2022-12-15T07:06:54.209Z,51.73
2022-12-15T07:09:24.374Z,51.88
2022-12-15T07:11:55.341Z,51.85
2022-12-15T07:14:26.151Z,51.97
2022-12-15T07:16:56.374Z,51.97
2022-12-15T07:19:26.654Z,51.93
2022-12-15T07:21:58.752Z,52.05
2022-12-15T07:24:28.861Z,52.01
2022-12-15T07:26:59.150Z,51.87
2022-12-15T07:29:29.277Z,52.05
2022-12-15T07:31:59.473Z,52.02
2022-12-15T07:34:29.712Z,52.13
2022-12-15T07:36:59.826Z,52.04
2022-12-15T07:39:30.118Z,52.23
2022-12-15T07:42:00.396Z,52.13
2022-12-15T07:44:31.309Z,52.09
2022-12-15T07:47:01.461Z,52.19
2022-12-15T07:49:31.483Z,51.96
2022-12-15T07:52:01.441Z,52.36
2022-12-15T07:54:33.520Z,52.29
2022-12-15T07:57:04.954Z,52.05
2022-12-15T07:59:34.887Z,52.26
2022-12-15T08:02:06.683Z,52.29
2022-12-15T08:04:36.907Z,52.27
2022-12-15T08:07:07.223Z,52.39
2022-12-15T08:09:37.645Z,52.26
2022-12-15T08:12:08.050Z,52.31
2022-12-15T08:14:39.250Z,52.38
2022-12-15T08:17:09.473Z,52.50
2022-12-15T08:19:39.862Z,52.43
2022-12-15T08:22:10.113Z,52.38
2022-12-15T08:24:40.549Z,52.35
2022-12-15T08:27:11.046Z,52.30
2022-12-15T08:29:56.096Z,52.29
2022-12-15T08:32:26.783Z,52.11
2022-12-15T08:34:56.908Z,52.42
2022-12-15T08:37:26.921Z,52.24
2022-12-15T08:39:57.024Z,52.11
2022-12-15T08:42:27.172Z,52.28
2022-12-15T08:44:57.399Z,52.19
2022-12-15T08:47:27.624Z,52.40
2022-12-15T08:49:57.978Z,52.51
2022-12-15T08:52:28.161Z,52.68
2022-12-15T08:54:58.260Z,52.53
2022-12-15T08:57:28.424Z,52.60
2022-12-15T08:59:58.759Z,52.62
2022-12-15T09:02:30.227Z,52.47
2022-12-15T09:05:00.110Z,52.71
2022-12-15T09:07:30.622Z,52.68
2022-12-15T09:10:00.739Z,52.66
2022-12-15T09:12:30.707Z,52.58
2022-12-15T09:15:00.740Z,52.73
2022-12-15T09:17:30.701Z,52.59
2022-12-15T09:20:01.100Z,52.51
2022-12-15T09:22:31.268Z,52.63
2022-12-15T09:25:01.507Z,52.56
2022-12-15T09:27:32.748Z,52.55
2022-12-15T09:30:03.150Z,52.50
2022-12-15T09:32:34.479Z,52.67
2022-12-15T09:35:04.202Z,52.50
2022-12-15T09:37:34.696Z,52.73
2022-12-15T09:40:06.112Z,52.51
2022-12-15T09:42:36.110Z,52.41
2022-12-15T09:45:22.494Z,52.43
2022-12-15T09:48:03.587Z,52.38
2022-12-15T09:50:44.909Z,52.43
2022-12-15T09:53:52.908Z,52.80
2022-12-15T09:56:26.013Z,52.70
2022-12-15T09:59:17.915Z,52.69
2022-12-15T10:02:04.082Z,52.87
2022-12-15T10:04:55.379Z,52.57
2022-12-15T10:07:37.004Z,52.84
2022-12-15T10:10:37.154Z,52.77
2022-12-15T10:13:25.631Z,53.00
2022-12-15T10:16:23.930Z,53.00
2022-12-15T10:19:11.412Z,52.87
2022-12-15T10:21:42.173Z,52.89
2022-12-15T10:24:37.565Z,53.12
2022-12-15T10:27:29.600Z,52.99
2022-12-15T10:30:04.136Z,53.16
2022-12-15T10:32:39.342Z,53.09
2022-12-15T10:35:37.124Z,53.12
2022-12-15T10:38:16.519Z,53.19
2022-12-15T10:40:50.314Z,53.16
2022-12-15T10:43:30.801Z,53.11
2022-12-15T10:46:17.645Z,53.11
2022-12-15T10:49:00.009Z,53.13
2022-12-15T10:51:35.673Z,53.13
2022-12-15T10:54:17.537Z,53.19
2022-12-15T10:57:05.311Z,53.30
2022-12-15T10:59:37.919Z,53.36
2022-12-15T11:02:25.135Z,53.37
2022-12-15T11:05:04.594Z,53.37
2022-12-15T11:07:59.788Z,53.37
2022-12-15T11:10:55.547Z,53.46
2022-12-15T11:13:31.319Z,53.42
2022-12-15T11:16:21.923Z,53.48
2022-12-15T11:19:03.534Z,53.35
2022-12-15T11:21:37.592Z,53.49
2022-12-15T11:24:14.161Z,53.50
2022-12-15T11:26:55.982Z,53.53
2022-12-15T11:29:26.116Z,53.63
2022-12-15T11:32:03.112Z,53.72
2022-12-15T11:34:41.741Z,53.63
2022-12-15T11:40:42.843Z,53.69
2022-12-15T11:43:40.652Z,53.74
2022-12-15T11:46:28.807Z,53.83
2022-12-15T11:49:01.991Z,53.87
2022-12-15T11:51:52.030Z,53.90
2022-12-15T11:54:44.787Z,53.95
2022-12-15T11:57:18.576Z,53.94
2022-12-15T12:00:21.927Z,53.94
2022-12-15T12:03:31.097Z,54.07
2022-12-15T12:06:17.397Z,54.10
2022-12-15T12:09:16.523Z,54.22
2022-12-15T12:11:58.055Z,54.28
2022-12-15T12:14:36.994Z,54.19
2022-12-15T12:17:39.095Z,54.19
2022-12-15T12:20:22.883Z,54.10
2022-12-15T12:23:07.689Z,53.96
2022-12-15T12:26:02.751Z,54.01
2022-12-15T12:28:54.930Z,54.12
2022-12-15T12:31:43.463Z,54.06
2022-12-15T12:34:51.391Z,54.00
2022-12-15T12:37:46.729Z,54.01
2022-12-15T12:40:27.347Z,54.02
2022-12-15T12:43:01.662Z,53.83
2022-12-15T12:45:44.671Z,53.92
2022-12-15T12:48:28.798Z,53.85
2022-12-15T12:51:44.173Z,53.88
2022-12-15T12:54:35.822Z,53.95
2022-12-15T12:57:14.512Z,53.88
2022-12-15T12:59:59.640Z,53.91
2022-12-15T13:02:29.889Z,53.92
2022-12-15T13:05:21.570Z,53.81
2022-12-15T13:08:10.499Z,53.87
2022-12-15T13:10:41.760Z,53.83
2022-12-15T13:13:30.649Z,53.94
2022-12-15T13:16:26.779Z,53.85
2022-12-15T13:19:10.805Z,54.04
2022-12-15T13:21:48.585Z,53.85
2022-12-15T13:24:37.439Z,53.63
2022-12-15T13:30:32.375Z,53.96
2022-12-15T13:33:43.096Z,53.99
2022-12-15T13:37:02.693Z,53.95
2022-12-15T13:39:56.534Z,53.43
2022-12-15T13:49:22.357Z,53.75
2022-12-15T13:53:16.295Z,53.41
2022-12-15T13:55:38.469Z,53.22
2022-12-15T13:58:33.948Z,53.01
2022-12-15T14:07:18.776Z,53.11
2022-12-15T14:10:05.209Z,53.23
2022-12-15T14:12:47.111Z,53.13
2022-12-15T14:15:33.955Z,53.31
2022-12-15T14:24:54.939Z,53.22
2022-12-15T14:27:45.529Z,53.02
2022-12-15T14:30:54.461Z,52.79
2022-12-15T14:33:55.443Z,52.89
2022-12-15T14:39:50.221Z,53.11
2022-12-15T14:42:41.040Z,52.87
2022-12-15T14:45:39.937Z,53.02
2022-12-15T14:48:41.482Z,53.14
2022-12-15T14:51:33.615Z,53.23
2022-12-15T14:54:49.342Z,53.35
2022-12-15T14:57:38.352Z,53.48
2022-12-15T15:00:47.717Z,53.43
2022-12-15T15:03:12.307Z,53.58
2022-12-15T15:03:31.965Z,53.59
2022-12-15T15:06:38.086Z,53.48
2022-12-15T15:09:44.297Z,53.72
2022-12-15T15:12:27.783Z,53.69
2022-12-15T15:15:15.472Z,53.87
2022-12-15T15:17:55.888Z,53.62
2022-12-15T15:20:49.961Z,53.93
2022-12-15T15:23:22.540Z,53.87
2022-12-15T15:26:20.382Z,53.87
2022-12-15T15:28:52.280Z,53.84
2022-12-15T15:31:41.413Z,53.75
2022-12-15T15:34:13.663Z,53.89
2022-12-15T15:36:45.528Z,53.78
2022-12-15T15:39:19.236Z,53.86
2022-12-15T15:41:50.720Z,53.86
2022-12-15T15:44:21.727Z,53.65
2022-12-15T15:46:55.622Z,53.88
2022-12-15T15:49:27.849Z,53.98
2022-12-15T15:52:00.304Z,53.81
2022-12-15T15:54:38.441Z,53.94
2022-12-15T15:57:13.219Z,54.13
2022-12-15T15:59:46.388Z,54.07
2022-12-15T16:02:18.966Z,54.21
2022-12-15T16:04:50.492Z,54.19
2022-12-15T16:07:31.911Z,54.51
2022-12-15T16:10:02.990Z,54.21
2022-12-15T16:12:43.206Z,54.56
2022-12-15T16:15:25.396Z,54.66
2022-12-15T16:17:57.643Z,54.48
2022-12-15T16:20:31.342Z,54.59
2022-12-15T16:23:10.168Z,54.46
2022-12-15T16:25:50.621Z,54.75
2022-12-15T16:28:24.185Z,54.62
2022-12-15T16:30:55.426Z,54.88
2022-12-15T16:33:25.862Z,54.66
2022-12-15T16:35:56.689Z,54.96
2022-12-15T16:38:34.243Z,54.74
2022-12-15T16:41:09.541Z,54.77
2022-12-15T16:43:46.013Z,54.82
2022-12-15T16:46:18.670Z,54.75
2022-12-15T16:48:49.274Z,54.81
2022-12-15T16:51:44.560Z,54.76
2022-12-15T16:54:34.177Z,54.83
2022-12-15T16:57:04.714Z,54.88
2022-12-15T16:59:35.942Z,54.95
2022-12-15T17:02:24.706Z,54.88
2022-12-15T17:04:57.433Z,54.73
2022-12-15T17:07:30.581Z,54.91
2022-12-15T17:10:01.309Z,54.78
2022-12-15T17:12:32.375Z,54.83
2022-12-15T17:15:04.677Z,54.77
2022-12-15T17:17:34.861Z,55.03
2022-12-15T17:20:29.244Z,54.70
2022-12-15T17:23:04.258Z,54.52
2022-12-15T17:28:34.971Z,54.96
2022-12-15T17:31:05.769Z,54.98
2022-12-15T17:33:37.973Z,55.02
2022-12-15T17:36:19.024Z,55.20
2022-12-15T17:38:52.472Z,54.97
2022-12-15T17:41:50.221Z,55.09
2022-12-15T17:44:36.345Z,55.38
2022-12-15T17:47:09.658Z,55.36
2022-12-15T17:49:40.331Z,55.16
2022-12-15T17:52:27.198Z,55.36
2022-12-15T17:54:58.250Z,55.41
2022-12-15T17:57:28.955Z,55.46
2022-12-15T17:59:59.264Z,55.58
2022-12-15T18:02:29.733Z,55.51
2022-12-15T18:05:00.264Z,55.54
2022-12-15T18:07:30.344Z,55.75
2022-12-15T18:10:00.585Z,55.80
2022-12-15T18:12:31.313Z,55.83
2022-12-15T18:15:02.637Z,55.55
2022-12-15T18:17:33.502Z,55.73
2022-12-15T18:20:06.870Z,55.77
2022-12-15T18:22:37.129Z,55.67
2022-12-15T18:25:17.024Z,55.72
2022-12-15T18:27:48.286Z,55.85
2022-12-15T18:30:21.046Z,55.79
2022-12-15T18:32:51.969Z,55.72
2022-12-15T18:35:25.612Z,55.80
2022-12-15T18:37:55.887Z,56.02
2022-12-15T18:40:30.397Z,56.01
2022-12-15T18:43:00.610Z,55.89
2022-12-15T18:45:31.015Z,55.92
2022-12-15T18:48:01.105Z,56.03
2022-12-15T18:50:31.308Z,56.02
2022-12-15T18:53:04.453Z,55.90
2022-12-15T18:55:34.962Z,56.17
2022-12-15T18:58:05.174Z,56.00
2022-12-15T19:00:36.626Z,55.98
2022-12-15T19:03:07.059Z,56.10
2022-12-15T19:05:39.156Z,56.02
2022-12-15T19:08:15.749Z,56.27
2022-12-15T19:10:53.482Z,56.01
2022-12-15T19:13:30.695Z,56.06
2022-12-15T19:16:02.594Z,56.34
2022-12-15T19:18:51.322Z,56.44
2022-12-15T19:21:50.644Z,56.46
2022-12-15T19:24:48.079Z,56.61
2022-12-15T19:27:25.371Z,56.69
2022-12-15T19:29:58.847Z,56.60
2022-12-15T19:32:29.200Z,56.76
2022-12-15T19:34:59.489Z,56.79
2022-12-15T19:37:32.408Z,56.97
2022-12-15T19:40:04.078Z,56.95
2022-12-15T19:42:37.814Z,57.00
2022-12-15T19:45:25.421Z,57.02
2022-12-15T19:47:56.234Z,57.03
2022-12-15T19:50:32.665Z,56.87
2022-12-15T19:53:05.263Z,56.81
2022-12-15T19:55:38.809Z,57.08
2022-12-15T19:58:32.377Z,57.12
2022-12-15T20:01:10.129Z,57.03
2022-12-15T20:03:40.795Z,57.24
2022-12-15T20:06:27.108Z,57.18
2022-12-15T20:08:59.158Z,57.21
2022-12-15T20:11:32.721Z,57.34
2022-12-15T20:14:04.212Z,57.10
2022-12-15T20:16:34.580Z,57.31
2022-12-15T20:19:04.895Z,57.30
2022-12-15T20:21:40.880Z,57.30
2022-12-15T20:24:17.677Z,57.26
2022-12-15T20:26:48.894Z,57.29
2022-12-15T20:29:27.886Z,57.27
2022-12-15T20:32:00.168Z,57.56
2022-12-15T20:34:30.441Z,57.44
2022-12-15T20:37:00.734Z,57.31
2022-12-15T20:39:32.421Z,57.34
2022-12-15T20:42:02.740Z,57.32
2022-12-15T20:44:32.772Z,57.37
2022-12-15T20:47:04.044Z,57.30
2022-12-15T20:49:34.451Z,57.48
2022-12-15T20:52:05.961Z,57.21
2022-12-15T20:54:36.101Z,57.31
2022-12-15T20:57:06.558Z,57.29
2022-12-15T20:59:36.560Z,57.17
2022-12-15T21:02:22.082Z,57.19
2022-12-15T21:04:53.341Z,57.22
2022-12-15T21:07:23.534Z,57.49
2022-12-15T21:09:54.025Z,57.29
2022-12-15T21:12:28.159Z,57.50
2022-12-15T21:14:58.337Z,57.35
2022-12-15T21:17:29.033Z,57.08
2022-12-15T21:19:59.370Z,57.28
2022-12-15T21:22:30.693Z,57.44
2022-12-15T21:25:02.754Z,57.25
2022-12-15T21:27:33.170Z,57.26
2022-12-15T21:30:03.321Z,57.38
2022-12-15T21:32:33.349Z,57.36
2022-12-15T21:35:03.274Z,57.46
2022-12-15T21:37:33.577Z,57.42
2022-12-15T21:40:03.948Z,57.51
2022-12-15T21:42:37.903Z,57.27
2022-12-15T21:45:22.175Z,57.42
2022-12-15T21:48:11.817Z,57.28
2022-12-15T21:50:44.543Z,57.55
2022-12-15T21:53:19.058Z,57.45
2022-12-15T21:55:49.666Z,57.24
2022-12-15T21:58:23.164Z,57.45
2022-12-15T22:00:53.817Z,57.25
2022-12-15T22:03:24.368Z,57.36
2022-12-15T22:05:54.478Z,57.66
2022-12-15T22:08:25.376Z,57.57
2022-12-15T22:10:57.080Z,57.36
2022-12-15T22:13:27.527Z,57.55
2022-12-15T22:15:57.813Z,57.26
2022-12-15T22:18:28.032Z,57.59
2022-12-15T22:20:58.450Z,57.59
2022-12-15T22:23:28.604Z,58.15
2022-12-15T22:25:59.143Z,58.31
2022-12-15T22:28:31.167Z,58.31
2022-12-15T22:31:04.637Z,58.30
2022-12-15T22:33:34.872Z,58.06
2022-12-15T22:36:04.891Z,58.44
2022-12-15T22:38:35.253Z,58.23
2022-12-15T22:42:25.142Z,58.22
2022-12-15T22:44:56.241Z,58.30
2022-12-15T22:47:26.346Z,58.31
2022-12-15T22:49:56.407Z,57.99
2022-12-15T22:52:26.604Z,58.07
2022-12-15T22:54:58.793Z,57.91
2022-12-15T22:57:30.845Z,58.06
2022-12-15T23:00:09.572Z,58.42
2022-12-15T23:02:44.965Z,58.67
2022-12-15T23:05:18.412Z,58.72
2022-12-15T23:07:49.617Z,58.71
2022-12-15T23:10:40.435Z,58.54
2022-12-15T23:13:10.620Z,58.60
2022-12-15T23:15:59.177Z,58.48
2022-12-15T23:18:29.540Z,58.43
2022-12-15T23:21:00.035Z,58.52
2022-12-15T23:23:30.746Z,58.42
2022-12-15T23:26:01.336Z,58.52
2022-12-15T23:28:31.765Z,58.45
2022-12-15T23:31:02.510Z,58.22
2022-12-15T23:33:33.907Z,58.07
2022-12-15T23:36:05.005Z,58.24
2022-12-15T23:38:35.333Z,57.94
2022-12-15T23:41:05.693Z,57.84
2022-12-15T23:43:36.880Z,58.04
2022-12-15T23:46:09.035Z,58.10
2022-12-15T23:48:45.513Z,57.90
2022-12-15T23:51:20.471Z,58.09
2022-12-15T23:53:51.647Z,57.88
2022-12-15T23:56:30.411Z,57.91
2022-12-15T23:59:01.711Z,58.10
